L'Astrolabe — FHZI — position and weather

sailwx.info

Track history (hours):
 
Tides and Currents Weather Stations Pressure Air Temp Water Temp Dewpoint Dewpoint Depression Visibility Wind Speed Wind Dir Waves Ship Positions

Oceanographic research ship L'Astrolabe (France)

Ship's website: http://www.ifremer.fr/ifrtp/pages/astrolabe.html

Detailed information on ship capabilities available from University of Delaware's Ocean Information Center.

Last reported at 2015-Jan-31 03:00 UTC. Time now 2015-Jan-31 06:59 UTC.
Position S 56°24' E 144°30'.

Length 65.5 m; beam 13.1 m; draft 4.7 m.

Type: Other ship. MMSI: 227152000.

Wind from 290 at 16 knots

Barometer 1010.8 mb
Air temperature 5.2 ° C
Dewpoint 2.9 ° C
Water temperature 4.5 ° C

Date/timePositionNaut miles runAvg speedWind from/ knotsBaromVisibWave heightAir tempDewpointWater temp
2015-Jan-31 03:00S 56°24' E 144°30'1212.4 290 / 161010.8 5.2 2.9 4.5
2015-Jan-31 02:00S 56°36' E 144°24'2412.1 290 / 171010.5 5.1 2.7 4.4
2015-Jan-31 00:00S 57°00' E 144°18'10912.1 290 / 161011.1 5.0 2.3 4.4
2015-Jan-30 15:00S 58°48' E 143°54'3110.2 270 / 131014.0 3.5 0.7 3.8
2015-Jan-30 12:00S 59°18' E 143°42'1212.4 270 / 201014.2 3.9 0.5 4.2
2015-Jan-30 11:00S 59°30' E 143°36'2412.0 260 / 141014.4 4.1 0.5 4.5
2015-Jan-30 09:00S 59°54' E 143°36'1212.4 270 / 181014.2 3.9-0.0 4.1
2015-Jan-30 08:00S 60°06' E 143°30'2412.1 270 / 191014.0 3.7 0.4 3.7
2015-Jan-30 06:00S 60°30' E 143°24'7312.2 270 / 221014.0 3.6-0.1 3.3
2015-Jan-30 00:00S 61°42' E 143°00'6 6.0 270 / 291009.9 3.3 2.4 2.5
2015-Jan-29 23:00S 61°48' E 143°00'2412.1 270 / 291008.6 3.2 2.5
2015-Jan-29 21:00S 62°12' E 142°54'3612.1 270 / 171006.0 3.7 2.7
2015-Jan-29 18:00S 62°48' E 142°42'10311.5 310 / 251005.6 3.6 2.3
2015-Jan-29 09:00S 64°30' E 142°06'1212.0 010 / 131007.8 1.8 1.2
2015-Jan-29 08:00S 64°42' E 142°06'5511.0 340 / 131008.6 1.3 0.9
2015-Jan-29 03:00S 65°36' E 141°42'42 7.0 280 / 231008.3 -0.1-1.4-0.1
2015-Jan-28 21:00S 66°18' E 141°30'25 2.7 270 / 121005.2 -4.8-8.5-1.4
2015-Jan-28 12:00S 66°36' E 140°48'2 0.8 280 / 121002.7 -2.0-4.8-1.8
2015-Jan-28 09:00S 66°36' E 140°42'0 0.0 270 / 151000.7 -1.6-3.6-1.7
2015-Jan-28 06:00S 66°36' E 140°42'0 0.0 270 / 6998.3 0.6-3.6-1.3
2015-Jan-28 05:00S 66°36' E 140°42'0 0.0 230 / 2997.5 -0.3-3.9-1.3
2015-Jan-28 03:00S 66°36' E 140°42'0 0.0 120 / 11995.7 -2.0-5.4-1.4
2015-Jan-28 02:00S 66°36' E 140°42'0 0.0 110 / 12994.5 -2.6-5.9-1.5
2015-Jan-28 00:00S 66°36' E 140°42'2 0.4 120 / 13993.5 -2.5-7.3-1.5
2015-Jan-27 18:00S 66°36' E 140°48'0 0.0 110 / 19991.6 -3.6-10.8-1.7
2015-Jan-27 17:00S 66°36' E 140°48'0 0.0 120 / 17991.8 -3.9-11.2-1.7
2015-Jan-27 15:00S 66°36' E 140°48'0 0.0 120 / 18990.8 -3.7-12.0-1.7
2015-Jan-27 12:00S 66°36' E 140°48'2 0.8 160 / 9989.9 -4.3-10.8-1.7
2015-Jan-27 09:00S 66°36' E 140°42'0 0.0 210 / 7988.3 -1.4-7.8-1.7
2015-Jan-27 03:00S 66°36' E 140°42'0 0.0 110 / 8985.3 -0.9-11.1-1.7
2015-Jan-27 02:00S 66°36' E 140°42'0 0.0 130 / 6984.6 -0.9-10.7-1.7
2015-Jan-27 00:00S 66°36' E 140°42'0 0.0 140 / 15983.7 -2.5-9.9-1.8
2015-Jan-26 23:00S 66°36' E 140°42'0 0.0 150 / 15983.2 -3.0-11.4-1.8
2015-Jan-26 21:00S 66°36' E 140°42'2 0.4 160 / 17982.3 -4.0-10.6-1.8
2015-Jan-26 15:00S 66°36' E 140°36'0 0.0 170 / 12983.1 -3.6-9.3-1.8
2015-Jan-26 14:00S 66°36' E 140°36'9 1.9 160 / 10983.4 -3.0-8.1-1.8
2015-Jan-26 09:00S 66°30' E 140°18'5 0.8 250 / 11985.2 -1.5-4.4-1.6
2015-Jan-26 03:00S 66°30' E 140°06'0 0.0 330 / 2987.8 0.9-6.1-1.1
2015-Jan-26 00:00S 66°30' E 140°06'0 0.0 130 / 2989.3 -0.3-5.6-1.2
2015-Jan-25 23:00S 66°30' E 140°06'0 0.0 130 / 4989.5 -2.6-8.7-1.2
2015-Jan-25 21:00S 66°30' E 140°06'0 0.0 160 / 5989.9 -6.0-10.2-1.2
2015-Jan-25 20:00S 66°30' E 140°06'0 0.0 140 / 8990.4 -5.4-10.1-1.2
2015-Jan-25 17:00S 66°30' E 140°06'0 0.0 140 / 9990.8 -5.9-10.4-1.2
2015-Jan-25 12:00S 66°30' E 140°06'0 0.0 140 / 6990.4 -3.3-6.2-1.2
2015-Jan-25 11:00S 66°30' E 140°06'0 0.0 130 / 6990.4 -3.2-5.6-1.2
2015-Jan-25 03:00S 66°30' E 140°06'0 0.0 090 / 12988.0 -2.1-8.7-1.3
2015-Jan-24 21:00S 66°30' E 140°06'0 0.0 120 / 12986.1 -5.3-12.7-1.3
2015-Jan-24 17:00S 66°30' E 140°06'0 0.0 140 / 16984.3 -5.3-12.5-1.3
2015-Jan-24 15:00S 66°30' E 140°06'0 0.0 140 / 17983.6 -5.2-11.5-1.3
2015-Jan-24 09:00S 66°30' E 140°06'0 0.0 110 / 4982.0 -0.2-5.3-1.3
2015-Jan-24 08:00S 66°30' E 140°06'0 0.0 110 / 5981.6 -0.2-5.5-1.3
2015-Jan-24 06:00S 66°30' E 140°06'0 0.0 110 / 5980.6 -0.0-5.4-1.3
2015-Jan-24 03:00S 66°30' E 140°06'0 0.0 120 / 18979.2 -0.3-6.4-1.3
2015-Jan-24 02:00S 66°30' E 140°06'0 0.0 130 / 19978.8 -0.5-6.4-1.3
2015-Jan-24 00:00S 66°30' E 140°06'0 0.0 120 / 19978.2 -0.8-6.4-1.3
2015-Jan-23 17:00S 66°30' E 140°06'0 0.0 110 / 12977.0 -0.7-4.5-1.3
2015-Jan-23 15:00S 66°30' E 140°06'0 0.0 110 / 13976.8 -1.0-3.6-1.3
2015-Jan-23 14:00S 66°30' E 140°06'0 0.0 110 / 14977.2 -0.9-3.7-1.3
2015-Jan-23 06:00S 66°30' E 140°06'0 0.0 120 / 16977.2 -0.1-5.6-1.3
2015-Jan-23 00:00S 66°30' E 140°06'0 0.0 120 / 12977.1 -0.9-6.1-1.3
2015-Jan-22 18:00S 66°30' E 140°06'0 0.0 130 / 14975.2 -2.1-6.1-1.3
2015-Jan-22 15:00S 66°30' E 140°06'0 0.0 120 / 9973.3 -0.6-5.4-1.3
2015-Jan-22 14:00S 66°30' E 140°06'0 0.0 110 / 7972.8 -0.2-5.4-1.3
2015-Jan-22 12:00S 66°30' E 140°06'0 0.0 140 / 3971.1 -0.7-4.1-1.3
2015-Jan-22 11:00S 66°30' E 140°06'0 0.0 090 / 8970.6 -0.9-3.7-1.3
2015-Jan-22 09:00S 66°30' E 140°06'0 0.0 110 / 11971.3 -1.3-3.2-1.3
2015-Jan-22 03:00S 66°30' E 140°06'0 0.0 110 / 13974.0 -1.7-3.3-1.2
2015-Jan-22 02:00S 66°30' E 140°06'0 0.0 110 / 15975.4 -1.8-3.2-1.2
2015-Jan-22 00:00S 66°30' E 140°06'0 0.0 110 / 12979.1 -1.2-4.4-1.2
2015-Jan-21 21:00S 66°30' E 140°06'0 0.0 110 / 13983.8 -1.2-1.2-1.1
2015-Jan-21 18:00S 66°30' E 140°06'0 0.0 110 / 12988.2 -1.4 -1.1
2015-Jan-21 15:00S 66°30' E 140°06'0 0.0 110 / 10991.6 -1.2-1.2-1.1
2015-Jan-21 11:00S 66°30' E 140°06'0 0.0 100 / 8994.8 -0.6-2.6-1.5
2015-Jan-21 09:00S 66°30' E 140°06'2 2.4 090 / 10995.5 -0.4-2.3-1.7
2015-Jan-21 08:00S 66°30' E 140°12'7 3.6 090 / 9995.9 -0.5-2.5-1.7
2015-Jan-21 06:00S 66°30' E 140°30'0 0.0 100 / 5996.5 1.1-1.9-1.8
2015-Jan-21 05:00S 66°30' E 140°30'   110 / 3996.7 1.8 0.1-1.8
Track history (hours):
 
Tides and Currents Weather Stations Pressure Air Temp Water Temp Dewpoint Dewpoint Depression Visibility Wind Speed Wind Dir Waves Ship Positions

Oceanographic research ship L'Astrolabe (France)

Ship's website: http://www.ifremer.fr/ifrtp/pages/astrolabe.html

Detailed information on ship capabilities available from University of Delaware's Ocean Information Center.

Last reported at 2015-Jan-31 03:00 UTC. Time now 2015-Jan-31 06:59 UTC.
Position S 56°24' E 144°30'.

Length 65.5 m; beam 13.1 m; draft 4.7 m.

Type: Other ship. MMSI: 227152000.

Wind from 290 at 16 knots

Barometer 1010.8 mb
Air temperature 5.2 ° C
Dewpoint 2.9 ° C
Water temperature 4.5 ° C

Date/timePositionNaut miles runAvg speedWind from/ knotsBaromVisibWave heightAir tempDewpointWater temp
2015-Jan-31 03:00S 56°24' E 144°30'1212.4 290 / 161010.8 5.2 2.9 4.5
2015-Jan-31 02:00S 56°36' E 144°24'2412.1 290 / 171010.5 5.1 2.7 4.4
2015-Jan-31 00:00S 57°00' E 144°18'10912.1 290 / 161011.1 5.0 2.3 4.4
2015-Jan-30 15:00S 58°48' E 143°54'3110.2 270 / 131014.0 3.5 0.7 3.8
2015-Jan-30 12:00S 59°18' E 143°42'1212.4 270 / 201014.2 3.9 0.5 4.2
2015-Jan-30 11:00S 59°30' E 143°36'2412.0 260 / 141014.4 4.1 0.5 4.5
2015-Jan-30 09:00S 59°54' E 143°36'1212.4 270 / 181014.2 3.9-0.0 4.1
2015-Jan-30 08:00S 60°06' E 143°30'2412.1 270 / 191014.0 3.7 0.4 3.7
2015-Jan-30 06:00S 60°30' E 143°24'7312.2 270 / 221014.0 3.6-0.1 3.3
2015-Jan-30 00:00S 61°42' E 143°00'6 6.0 270 / 291009.9 3.3 2.4 2.5
2015-Jan-29 23:00S 61°48' E 143°00'2412.1 270 / 291008.6 3.2 2.5
2015-Jan-29 21:00S 62°12' E 142°54'3612.1 270 / 171006.0 3.7 2.7
2015-Jan-29 18:00S 62°48' E 142°42'10311.5 310 / 251005.6 3.6 2.3
2015-Jan-29 09:00S 64°30' E 142°06'1212.0 010 / 131007.8 1.8 1.2
2015-Jan-29 08:00S 64°42' E 142°06'5511.0 340 / 131008.6 1.3 0.9
2015-Jan-29 03:00S 65°36' E 141°42'42 7.0 280 / 231008.3 -0.1-1.4-0.1
2015-Jan-28 21:00S 66°18' E 141°30'25 2.7 270 / 121005.2 -4.8-8.5-1.4
2015-Jan-28 12:00S 66°36' E 140°48'2 0.8 280 / 121002.7 -2.0-4.8-1.8
2015-Jan-28 09:00S 66°36' E 140°42'0 0.0 270 / 151000.7 -1.6-3.6-1.7
2015-Jan-28 06:00S 66°36' E 140°42'0 0.0 270 / 6998.3 0.6-3.6-1.3
2015-Jan-28 05:00S 66°36' E 140°42'0 0.0 230 / 2997.5 -0.3-3.9-1.3
2015-Jan-28 03:00S 66°36' E 140°42'0 0.0 120 / 11995.7 -2.0-5.4-1.4
2015-Jan-28 02:00S 66°36' E 140°42'0 0.0 110 / 12994.5 -2.6-5.9-1.5
2015-Jan-28 00:00S 66°36' E 140°42'2 0.4 120 / 13993.5 -2.5-7.3-1.5
2015-Jan-27 18:00S 66°36' E 140°48'0 0.0 110 / 19991.6 -3.6-10.8-1.7
2015-Jan-27 17:00S 66°36' E 140°48'0 0.0 120 / 17991.8 -3.9-11.2-1.7
2015-Jan-27 15:00S 66°36' E 140°48'0 0.0 120 / 18990.8 -3.7-12.0-1.7
2015-Jan-27 12:00S 66°36' E 140°48'2 0.8 160 / 9989.9 -4.3-10.8-1.7
2015-Jan-27 09:00S 66°36' E 140°42'0 0.0 210 / 7988.3 -1.4-7.8-1.7
2015-Jan-27 03:00S 66°36' E 140°42'0 0.0 110 / 8985.3 -0.9-11.1-1.7
2015-Jan-27 02:00S 66°36' E 140°42'0 0.0 130 / 6984.6 -0.9-10.7-1.7
2015-Jan-27 00:00S 66°36' E 140°42'0 0.0 140 / 15983.7 -2.5-9.9-1.8
2015-Jan-26 23:00S 66°36' E 140°42'0 0.0 150 / 15983.2 -3.0-11.4-1.8
2015-Jan-26 21:00S 66°36' E 140°42'2 0.4 160 / 17982.3 -4.0-10.6-1.8
2015-Jan-26 15:00S 66°36' E 140°36'0 0.0 170 / 12983.1 -3.6-9.3-1.8
2015-Jan-26 14:00S 66°36' E 140°36'9 1.9 160 / 10983.4 -3.0-8.1-1.8
2015-Jan-26 09:00S 66°30' E 140°18'5 0.8 250 / 11985.2 -1.5-4.4-1.6
2015-Jan-26 03:00S 66°30' E 140°06'0 0.0 330 / 2987.8 0.9-6.1-1.1
2015-Jan-26 00:00S 66°30' E 140°06'0 0.0 130 / 2989.3 -0.3-5.6-1.2
2015-Jan-25 23:00S 66°30' E 140°06'0 0.0 130 / 4989.5 -2.6-8.7-1.2
2015-Jan-25 21:00S 66°30' E 140°06'0 0.0 160 / 5989.9 -6.0-10.2-1.2
2015-Jan-25 20:00S 66°30' E 140°06'0 0.0 140 / 8990.4 -5.4-10.1-1.2
2015-Jan-25 17:00S 66°30' E 140°06'0 0.0 140 / 9990.8 -5.9-10.4-1.2
2015-Jan-25 12:00S 66°30' E 140°06'0 0.0 140 / 6990.4 -3.3-6.2-1.2
2015-Jan-25 11:00S 66°30' E 140°06'0 0.0 130 / 6990.4 -3.2-5.6-1.2
2015-Jan-25 03:00S 66°30' E 140°06'0 0.0 090 / 12988.0 -2.1-8.7-1.3
2015-Jan-24 21:00S 66°30' E 140°06'0 0.0 120 / 12986.1 -5.3-12.7-1.3
2015-Jan-24 17:00S 66°30' E 140°06'0 0.0 140 / 16984.3 -5.3-12.5-1.3
2015-Jan-24 15:00S 66°30' E 140°06'0 0.0 140 / 17983.6 -5.2-11.5-1.3
2015-Jan-24 09:00S 66°30' E 140°06'0 0.0 110 / 4982.0 -0.2-5.3-1.3
2015-Jan-24 08:00S 66°30' E 140°06'0 0.0 110 / 5981.6 -0.2-5.5-1.3
2015-Jan-24 06:00S 66°30' E 140°06'0 0.0 110 / 5980.6 -0.0-5.4-1.3
2015-Jan-24 03:00S 66°30' E 140°06'0 0.0 120 / 18979.2 -0.3-6.4-1.3
2015-Jan-24 02:00S 66°30' E 140°06'0 0.0 130 / 19978.8 -0.5-6.4-1.3
2015-Jan-24 00:00S 66°30' E 140°06'0 0.0 120 / 19978.2 -0.8-6.4-1.3
2015-Jan-23 17:00S 66°30' E 140°06'0 0.0 110 / 12977.0 -0.7-4.5-1.3
2015-Jan-23 15:00S 66°30' E 140°06'0 0.0 110 / 13976.8 -1.0-3.6-1.3
2015-Jan-23 14:00S 66°30' E 140°06'0 0.0 110 / 14977.2 -0.9-3.7-1.3
2015-Jan-23 06:00S 66°30' E 140°06'0 0.0 120 / 16977.2 -0.1-5.6-1.3
2015-Jan-23 00:00S 66°30' E 140°06'0 0.0 120 / 12977.1 -0.9-6.1-1.3
2015-Jan-22 18:00S 66°30' E 140°06'0 0.0 130 / 14975.2 -2.1-6.1-1.3
2015-Jan-22 15:00S 66°30' E 140°06'0 0.0 120 / 9973.3 -0.6-5.4-1.3
2015-Jan-22 14:00S 66°30' E 140°06'0 0.0 110 / 7972.8 -0.2-5.4-1.3
2015-Jan-22 12:00S 66°30' E 140°06'0 0.0 140 / 3971.1 -0.7-4.1-1.3
2015-Jan-22 11:00S 66°30' E 140°06'0 0.0 090 / 8970.6 -0.9-3.7-1.3
2015-Jan-22 09:00S 66°30' E 140°06'0 0.0 110 / 11971.3 -1.3-3.2-1.3
2015-Jan-22 03:00S 66°30' E 140°06'0 0.0 110 / 13974.0 -1.7-3.3-1.2
2015-Jan-22 02:00S 66°30' E 140°06'0 0.0 110 / 15975.4 -1.8-3.2-1.2
2015-Jan-22 00:00S 66°30' E 140°06'0 0.0 110 / 12979.1 -1.2-4.4-1.2
2015-Jan-21 21:00S 66°30' E 140°06'0 0.0 110 / 13983.8 -1.2-1.2-1.1
2015-Jan-21 18:00S 66°30' E 140°06'0 0.0 110 / 12988.2 -1.4 -1.1
2015-Jan-21 15:00S 66°30' E 140°06'0 0.0 110 / 10991.6 -1.2-1.2-1.1
2015-Jan-21 11:00S 66°30' E 140°06'0 0.0 100 / 8994.8 -0.6-2.6-1.5
2015-Jan-21 09:00S 66°30' E 140°06'2 2.4 090 / 10995.5 -0.4-2.3-1.7
2015-Jan-21 08:00S 66°30' E 140°12'7 3.6 090 / 9995.9 -0.5-2.5-1.7
2015-Jan-21 06:00S 66°30' E 140°30'0 0.0 100 / 5996.5 1.1-1.9-1.8
2015-Jan-21 05:00S 66°30' E 140°30'   110 / 3996.7 1.8 0.1-1.8

Dump ship's entire track history